Time;durP1;ratioP1;P1;durP2;ratioP2;P2;SDS_P1;SDS_P2;PMS_P1;PMS_P2;Temp;Humidity;BMP_temperature;BMP_pressure;BME280_temperature;BME280_humidity;BME280_pressure;Samples;Min_cycle;Max_cycle;Signal;HPM_P1;HPM_P2
2022/12/07 00:01:20;;;;;;;16.00;12.37;;;6.40;99.90;;;;;;4996668;28;20237;-81
2022/12/07 00:03:48;;;;;;;20.73;13.00;;;6.40;99.90;;;;;;4995788;28;20174;-80
2022/12/07 00:06:15;;;;;;;14.73;11.93;;;6.50;99.90;;;;;;4994336;28;20194;-79
2022/12/07 00:08:42;;;;;;;15.30;12.57;;;6.60;99.90;;;;;;4998036;28;20167;-78
2022/12/07 00:11:16;;;;;;;16.13;12.63;;;6.40;99.90;;;;;;4996390;28;20233;-79
2022/12/07 00:13:42;;;;;;;14.90;12.60;;;6.50;99.90;;;;;;4996213;28;20178;-82
2022/12/07 00:16:11;;;;;;;19.03;13.80;;;6.40;99.90;;;;;;4979042;28;20245;-80
2022/12/07 00:18:38;;;;;;;16.93;12.83;;;6.40;99.90;;;;;;4997336;28;20179;-81
2022/12/07 00:21:06;;;;;;;16.20;13.70;;;6.40;99.90;;;;;;4997341;28;20186;-81
2022/12/07 00:23:32;;;;;;;17.47;14.10;;;6.40;99.90;;;;;;4998279;28;20175;-81
2022/12/07 00:26:12;;;;;;;16.57;13.70;;;6.20;99.90;;;;;;4995893;28;20167;-82
2022/12/07 00:28:38;;;;;;;16.53;13.20;;;6.10;99.90;;;;;;4995281;28;20230;-82
2022/12/07 00:31:08;;;;;;;17.57;13.90;;;6.20;99.90;;;;;;4996505;28;20258;-82
2022/12/07 00:33:34;;;;;;;15.13;13.53;;;6.10;99.90;;;;;;4996339;28;20552;-81
2022/12/07 00:36:02;;;;;;;17.50;13.47;;;6.10;99.90;;;;;;4996242;28;20160;-82
2022/12/07 00:38:29;;;;;;;16.57;13.77;;;6.10;99.90;;;;;;4996189;28;20257;-80
2022/12/07 00:41:00;;;;;;;17.53;14.70;;;6.10;99.90;;;;;;4995030;28;20261;-81
2022/12/07 00:43:27;;;;;;;18.20;15.10;;;6.10;99.90;;;;;;4996166;28;20170;-81
2022/12/07 00:45:54;;;;;;;20.03;14.97;;;6.10;99.90;;;;;;4996700;28;20603;-81
2022/12/07 00:48:20;;;;;;;19.10;14.70;;;6.20;99.90;;;;;;4996176;28;20624;-79
2022/12/07 00:50:46;;;;;;;17.67;14.50;;;6.20;99.90;;;;;;4995857;28;20179;-79
2022/12/07 00:53:11;;;;;;;18.50;14.97;;;6.10;99.90;;;;;;4996063;28;20207;-79
2022/12/07 00:55:37;;;;;;;15.70;13.70;;;6.00;99.90;;;;;;4995439;28;20199;-80
2022/12/07 00:58:04;;;;;;;18.87;15.13;;;5.90;99.90;;;;;;4995969;28;20208;-81
2022/12/07 01:00:30;;;;;;;16.93;14.40;;;6.00;99.90;;;;;;4992863;28;20183;-81
2022/12/07 01:02:56;;;;;;;17.20;14.50;;;6.00;99.90;;;;;;4976067;28;20176;-83
2022/12/07 01:05:22;;;;;;;17.83;15.43;;;6.10;99.90;;;;;;4974521;28;20234;-80
2022/12/07 01:07:47;;;;;;;19.47;14.87;;;5.90;99.90;;;;;;4975631;28;20586;-80
2022/12/07 01:10:13;;;;;;;17.60;14.70;;;5.90;99.90;;;;;;4976089;28;20168;-79
2022/12/07 01:12:40;;;;;;;18.83;15.00;;;5.90;99.90;;;;;;4958456;28;20215;-81
2022/12/07 01:15:06;;;;;;;16.57;14.20;;;5.80;99.90;;;;;;4958343;28;20573;-79
2022/12/07 01:17:32;;;;;;;17.10;14.70;;;5.80;99.90;;;;;;4976247;28;20307;-80
2022/12/07 01:19:58;;;;;;;17.57;14.33;;;5.80;99.90;;;;;;4975967;28;20645;-82
2022/12/07 01:22:23;;;;;;;18.57;14.90;;;6.00;99.90;;;;;;4975791;28;20175;-79
2022/12/07 01:24:49;;;;;;;19.73;14.70;;;5.90;99.90;;;;;;4976322;28;20624;-81
2022/12/07 01:27:15;;;;;;;15.80;14.03;;;6.00;99.90;;;;;;4976471;28;20182;-79
2022/12/07 01:29:40;;;;;;;19.87;15.50;;;5.90;99.90;;;;;;4976681;28;20170;-79
2022/12/07 01:32:06;;;;;;;16.63;14.83;;;6.00;99.90;;;;;;4977057;28;20207;-79
2022/12/07 01:34:32;;;;;;;18.47;14.73;;;6.00;99.90;;;;;;4981521;28;20636;-79
2022/12/07 01:36:58;;;;;;;17.73;14.83;;;6.00;99.90;;;;;;4988270;28;20194;-81
2022/12/07 01:39:23;;;;;;;16.80;14.70;;;5.90;99.90;;;;;;4997679;28;20183;-78
2022/12/07 01:41:49;;;;;;;16.13;14.10;;;5.80;99.90;;;;;;4998796;28;20164;-80
2022/12/07 01:44:24;;;;;;;17.10;14.53;;;6.00;99.90;;;;;;4980454;28;20251;-79
2022/12/07 01:47:00;;;;;;;18.43;15.03;;;6.00;99.90;;;;;;4987347;28;20226;-79
2022/12/07 01:49:35;;;;;;;17.47;14.50;;;5.90;99.90;;;;;;4959101;28;20536;-80
2022/12/07 01:52:22;;;;;;;16.27;13.47;;;5.80;99.90;;;;;;4975928;28;20210;-79
2022/12/07 01:54:52;;;;;;;18.20;14.53;;;5.90;99.90;;;;;;4975725;28;20160;-80
2022/12/07 01:57:19;;;;;;;17.70;15.20;;;5.80;99.90;;;;;;4975863;28;20179;-79
2022/12/07 01:59:47;;;;;;;18.67;15.33;;;6.00;99.90;;;;;;4975790;28;20196;-79
2022/12/07 02:02:19;;;;;;;25.53;15.30;;;6.00;99.90;;;;;;4974209;28;20183;-79
2022/12/07 02:04:46;;;;;;;19.00;15.83;;;5.90;99.90;;;;;;4975541;28;20199;-79
2022/12/07 02:07:12;;;;;;;19.10;15.47;;;6.00;99.90;;;;;;4975377;28;20203;-81
2022/12/07 02:09:38;;;;;;;21.90;15.77;;;5.90;99.90;;;;;;4974895;28;20207;-79
2022/12/07 02:12:04;;;;;;;21.23;15.37;;;5.70;99.90;;;;;;4985862;28;20203;-78
2022/12/07 02:14:30;;;;;;;18.70;15.37;;;5.70;99.90;;;;;;4989301;28;20167;-79
2022/12/07 02:17:29;;;;;;;16.50;14.70;;;5.60;99.90;;;;;;4975234;28;20752;-80
2022/12/07 02:20:11;;;;;;;18.40;14.47;;;5.60;99.90;;;;;;4957134;28;20180;-80
2022/12/07 02:22:54;;;;;;;20.27;13.93;;;5.50;99.90;;;;;;4975271;28;20168;-80
2022/12/07 02:25:30;;;;;;;16.93;14.10;;;5.30;99.90;;;;;;4975355;28;20209;-80
2022/12/07 02:28:28;;;;;;;17.77;15.10;;;5.30;99.90;;;;;;4957860;28;20639;-80
2022/12/07 02:30:57;;;;;;;22.47;16.53;;;5.50;99.90;;;;;;4978494;28;20164;-78
2022/12/07 02:33:28;;;;;;;21.17;17.83;;;5.70;99.90;;;;;;4992205;28;20242;-78
2022/12/07 02:36:31;;;;;;;22.07;17.20;;;5.70;99.90;;;;;;4986702;28;20171;-79
2022/12/07 02:39:17;;;;;;;18.10;15.37;;;5.70;99.90;;;;;;4925397;28;20206;-78
2022/12/07 02:41:56;;;;;;;19.50;16.57;;;5.60;99.90;;;;;;4979992;28;20191;-78
2022/12/07 02:44:27;;;;;;;18.87;16.00;;;5.70;99.90;;;;;;4979021;28;20171;-80
2022/12/07 02:47:03;;;;;;;19.87;16.53;;;5.60;99.90;;;;;;4977278;28;20246;-79
2022/12/07 02:49:30;;;;;;;22.13;15.80;;;5.60;99.90;;;;;;4978234;28;20190;-78
2022/12/07 02:51:55;;;;;;;17.90;15.87;;;5.60;99.90;;;;;;4979669;28;20215;-78
2022/12/07 02:54:22;;;;;;;17.97;15.20;;;5.80;99.90;;;;;;4975400;28;20168;-79
2022/12/07 02:57:21;;;;;;;18.07;13.90;;;5.60;99.90;;;;;;4974866;28;20167;-79
2022/12/07 02:59:53;;;;;;;16.77;14.77;;;5.50;99.90;;;;;;4974237;28;20167;-79
2022/12/07 03:02:35;;;;;;;17.47;13.30;;;5.60;99.90;;;;;;4974645;28;20527;-77
2022/12/07 03:05:00;;;;;;;15.13;13.17;;;5.60;99.90;;;;;;4974617;28;20214;-79
2022/12/07 03:07:47;;;;;;;16.10;13.87;;;5.50;99.90;;;;;;4977755;28;20648;-79
2022/12/07 03:10:31;;;;;;;20.63;14.43;;;5.40;99.90;;;;;;4976767;28;20225;-77
2022/12/07 03:13:17;;;;;;;18.90;15.33;;;5.60;99.90;;;;;;4978600;28;20207;-79
2022/12/07 03:16:19;;;;;;;15.97;13.27;;;5.60;99.90;;;;;;4975724;28;20191;-80
2022/12/07 03:19:00;;;;;;;16.10;13.00;;;5.60;99.90;;;;;;4974373;28;20171;-79
2022/12/07 03:21:36;;;;;;;18.27;13.90;;;5.50;99.90;;;;;;4973458;28;20654;-79
2022/12/07 03:24:10;;;;;;;15.87;12.97;;;5.60;99.90;;;;;;4974239;28;20159;-82
2022/12/07 03:26:41;;;;;;;16.37;13.03;;;5.70;99.90;;;;;;4974412;28;20199;-80
2022/12/07 03:29:30;;;;;;;15.70;13.57;;;5.80;99.90;;;;;;4973628;28;20167;-80
2022/12/07 03:32:18;;;;;;;15.83;13.50;;;5.70;99.90;;;;;;4974700;28;20714;-82
2022/12/07 03:35:09;;;;;;;17.47;13.53;;;5.60;99.90;;;;;;4973276;28;20175;-81
2022/12/07 03:37:42;;;;;;;15.77;13.17;;;5.70;99.90;;;;;;4925058;28;20192;-81
2022/12/07 03:40:23;;;;;;;15.73;12.63;;;5.70;99.90;;;;;;4974205;28;20235;-81
2022/12/07 03:42:50;;;;;;;15.97;12.80;;;5.60;99.90;;;;;;4977363;28;20176;-82
2022/12/07 03:45:17;;;;;;;15.50;13.17;;;5.50;99.90;;;;;;4960554;28;20233;-82
2022/12/07 03:48:06;;;;;;;16.23;12.77;;;5.60;99.90;;;;;;4977925;28;20183;-80
2022/12/07 03:50:45;;;;;;;16.33;12.67;;;5.50;99.90;;;;;;4978020;28;20271;-80
2022/12/07 03:53:19;;;;;;;14.97;12.93;;;5.60;99.90;;;;;;4977150;28;20230;-79
2022/12/07 03:55:47;;;;;;;17.33;12.40;;;5.50;99.90;;;;;;4978020;28;20168;-82
2022/12/07 03:58:21;;;;;;;13.80;11.97;;;5.40;99.90;;;;;;4977446;28;20518;-80
2022/12/07 04:00:48;;;;;;;16.73;13.00;;;5.50;99.90;;;;;;4977966;28;20183;-81
2022/12/07 04:03:14;;;;;;;16.67;12.10;;;5.50;99.90;;;;;;4977682;28;20207;-81
2022/12/07 04:05:40;;;;;;;14.50;11.90;;;5.50;99.90;;;;;;4978391;28;20179;-80
2022/12/07 04:08:06;;;;;;;16.60;12.73;;;5.50;99.90;;;;;;4978073;28;20515;-81
2022/12/07 04:10:32;;;;;;;16.53;12.93;;;5.50;99.90;;;;;;4979227;28;20187;-78
2022/12/07 04:12:58;;;;;;;15.87;12.97;;;5.30;99.90;;;;;;4997607;28;20199;-79
2022/12/07 04:15:24;;;;;;;15.33;11.53;;;5.30;99.90;;;;;;4999423;28;20167;-81
2022/12/07 04:17:50;;;;;;;19.33;12.57;;;5.30;99.90;;;;;;4995713;28;20182;-81
2022/12/07 04:20:18;;;;;;;15.60;12.33;;;5.40;99.90;;;;;;4984721;28;20163;-81
2022/12/07 04:22:55;;;;;;;16.87;12.77;;;5.30;99.90;;;;;;4977159;28;20170;-81
2022/12/07 04:25:21;;;;;;;17.63;13.20;;;5.40;99.90;;;;;;4977548;28;20176;-80
2022/12/07 04:27:47;;;;;;;16.77;12.57;;;5.30;99.90;;;;;;4959898;28;20168;-81
2022/12/07 04:30:12;;;;;;;15.63;12.57;;;5.30;99.90;;;;;;4977346;28;20187;-82
2022/12/07 04:32:38;;;;;;;15.63;12.63;;;5.40;99.90;;;;;;4977263;28;20219;-81
2022/12/07 04:35:04;;;;;;;14.97;13.03;;;5.30;99.90;;;;;;4976938;28;20582;-81
2022/12/07 04:37:30;;;;;;;14.53;12.47;;;5.40;99.90;;;;;;4977132;28;20628;-81
2022/12/07 04:39:55;;;;;;;17.27;12.57;;;5.40;99.90;;;;;;4976992;28;20192;-80
2022/12/07 04:42:21;;;;;;;15.40;13.33;;;5.50;99.90;;;;;;4976748;28;20194;-81
2022/12/07 04:44:47;;;;;;;15.97;14.27;;;5.70;99.90;;;;;;4977022;28;20183;-82
2022/12/07 04:47:12;;;;;;;18.13;15.43;;;5.70;99.90;;;;;;4977076;28;20171;-80
2022/12/07 04:49:38;;;;;;;18.33;15.20;;;5.90;99.90;;;;;;4976329;28;20640;-81
2022/12/07 04:52:04;;;;;;;19.93;15.10;;;6.00;99.90;;;;;;4976963;28;20208;-81
2022/12/07 04:54:29;;;;;;;17.47;14.27;;;5.60;99.90;;;;;;4976235;28;20199;-81
2022/12/07 04:56:55;;;;;;;18.83;14.33;;;5.40;99.90;;;;;;4988612;28;20198;-79
2022/12/07 04:59:21;;;;;;;18.57;14.37;;;5.50;99.90;;;;;;4976699;28;20179;-82
2022/12/07 05:01:46;;;;;;;20.13;14.77;;;5.30;99.90;;;;;;4995745;28;20172;-80
2022/12/07 05:04:12;;;;;;;16.23;14.10;;;5.30;99.90;;;;;;4995712;28;20174;-79
2022/12/07 05:06:38;;;;;;;19.17;15.37;;;5.30;99.90;;;;;;4995739;28;20191;-80
2022/12/07 05:09:04;;;;;;;15.40;13.53;;;5.30;99.90;;;;;;4995668;28;20178;-80
2022/12/07 05:11:39;;;;;;;21.20;13.93;;;5.20;99.90;;;;;;4995329;28;20195;-80
2022/12/07 05:14:08;;;;;;;16.20;13.07;;;5.30;99.90;;;;;;4979405;28;20544;-80
2022/12/07 05:16:33;;;;;;;20.17;13.83;;;5.40;99.90;;;;;;5014131;28;20191;-80
2022/12/07 05:18:59;;;;;;;18.73;13.77;;;5.30;99.90;;;;;;5018886;28;20210;-80
2022/12/07 05:21:25;;;;;;;17.93;13.00;;;5.40;99.90;;;;;;5016968;28;20167;-80
2022/12/07 05:23:51;;;;;;;16.33;13.10;;;5.40;99.90;;;;;;4995982;28;20645;-81
2022/12/07 05:26:17;;;;;;;14.40;12.87;;;5.30;99.90;;;;;;4995756;28;20167;-80
2022/12/07 05:28:43;;;;;;;18.60;13.40;;;5.30;99.90;;;;;;4995632;28;20189;-81
2022/12/07 05:31:08;;;;;;;17.43;13.50;;;5.30;99.90;;;;;;4995779;28;20159;-81
2022/12/07 05:33:34;;;;;;;15.77;12.63;;;5.20;99.90;;;;;;4994305;28;20229;-81
2022/12/07 05:36:05;;;;;;;14.57;12.93;;;5.30;99.90;;;;;;4995726;28;20167;-80
2022/12/07 05:38:34;;;;;;;16.33;12.87;;;5.20;99.90;;;;;;4995441;28;20171;-79
2022/12/07 05:41:02;;;;;;;15.33;12.83;;;5.20;99.90;;;;;;4995034;28;20195;-81
2022/12/07 05:43:28;;;;;;;16.50;12.50;;;5.20;99.90;;;;;;4994440;28;20163;-79
2022/12/07 05:45:54;;;;;;;17.70;13.13;;;5.20;99.90;;;;;;4994870;28;20183;-79
2022/12/07 05:48:19;;;;;;;16.73;13.47;;;5.10;99.90;;;;;;4995162;28;20516;-80
2022/12/07 05:50:48;;;;;;;16.43;12.47;;;5.20;99.90;;;;;;4995021;28;20182;-79
2022/12/07 05:53:14;;;;;;;14.73;12.83;;;5.30;99.90;;;;;;4995133;28;20331;-79
2022/12/07 05:55:39;;;;;;;18.40;13.87;;;5.30;99.90;;;;;;4994911;28;20627;-79
2022/12/07 06:00:49;;;;;;;14.97;13.00;;;5.40;99.90;;;;;;4998084;28;20182;-81
2022/12/07 06:03:16;;;;;;;15.83;13.17;;;5.30;99.90;;;;;;4997390;28;20530;-80
2022/12/07 06:05:45;;;;;;;18.27;13.07;;;5.30;99.90;;;;;;5002234;28;20186;-79
2022/12/07 06:08:11;;;;;;;17.17;13.47;;;5.30;99.90;;;;;;4996253;28;20594;-80
2022/12/07 06:10:37;;;;;;;15.13;12.97;;;5.40;99.90;;;;;;4979164;28;20178;-81
2022/12/07 06:13:03;;;;;;;22.83;13.97;;;5.50;99.90;;;;;;4996763;28;20302;-80
2022/12/07 06:15:28;;;;;;;17.40;12.90;;;5.50;99.90;;;;;;4994552;28;20555;-81
2022/12/07 06:17:54;;;;;;;13.73;12.20;;;5.50;99.90;;;;;;4994382;28;20266;-80
2022/12/07 06:20:20;;;;;;;17.53;13.00;;;5.60;99.90;;;;;;4976781;28;20273;-79
2022/12/07 06:22:45;;;;;;;17.27;13.03;;;5.70;99.90;;;;;;4993930;28;20702;-82
2022/12/07 06:25:11;;;;;;;14.00;12.50;;;5.50;99.90;;;;;;4994874;28;20171;-80
2022/12/07 06:27:37;;;;;;;14.33;12.23;;;5.40;99.90;;;;;;4995254;28;20175;-81
2022/12/07 06:30:06;;;;;;;15.03;11.83;;;5.40;99.90;;;;;;4994293;28;20190;-80
2022/12/07 06:32:33;;;;;;;16.23;13.03;;;5.50;99.90;;;;;;4994806;28;20260;-81
2022/12/07 06:34:59;;;;;;;14.77;12.03;;;5.50;99.90;;;;;;4993704;28;20632;-80
2022/12/07 06:37:25;;;;;;;16.00;13.13;;;5.50;99.90;;;;;;4976927;28;20194;-80
2022/12/07 06:39:50;;;;;;;15.30;12.70;;;5.50;99.90;;;;;;4995390;28;20186;-80
2022/12/07 06:42:16;;;;;;;15.90;12.20;;;5.50;99.90;;;;;;4995699;28;20650;-81
2022/12/07 06:44:42;;;;;;;15.40;12.43;;;5.50;99.90;;;;;;5004381;28;20178;-82
2022/12/07 06:47:09;;;;;;;20.37;13.07;;;5.60;99.90;;;;;;5015331;28;20246;-79
2022/12/07 06:49:35;;;;;;;17.87;13.13;;;5.60;99.90;;;;;;5014674;28;20174;-79
2022/12/07 06:52:06;;;;;;;18.10;13.07;;;5.50;99.90;;;;;;5005773;28;20207;-80
2022/12/07 06:54:32;;;;;;;16.40;12.37;;;5.50;99.90;;;;;;4996509;28;20175;-82
2022/12/07 06:56:58;;;;;;;14.87;13.33;;;5.40;99.90;;;;;;4994318;28;20163;-79
2022/12/07 06:59:23;;;;;;;14.47;11.83;;;5.40;99.90;;;;;;4995981;28;20576;-80
2022/12/07 07:01:49;;;;;;;21.60;12.70;;;5.60;99.90;;;;;;4994518;28;20186;-81
2022/12/07 07:04:15;;;;;;;17.63;12.20;;;5.70;99.90;;;;;;4995142;28;20229;-82
2022/12/07 07:06:42;;;;;;;15.37;12.53;;;5.70;99.90;;;;;;5007315;28;20198;-81
2022/12/07 07:09:20;;;;;;;13.60;11.73;;;5.60;99.90;;;;;;4985063;28;20178;-84
2022/12/07 07:11:46;;;;;;;16.47;12.47;;;5.70;99.90;;;;;;4981744;28;20234;-83
2022/12/07 07:14:12;;;;;;;16.17;13.67;;;6.10;99.90;;;;;;4998067;28;20175;-82
2022/12/07 07:16:37;;;;;;;18.47;14.73;;;6.00;99.90;;;;;;4997883;28;20260;-88
2022/12/07 07:19:16;;;;;;;16.90;13.73;;;6.10;99.90;;;;;;5006759;28;20167;-83
2022/12/07 07:21:41;;;;;;;19.37;14.97;;;6.00;99.90;;;;;;5009366;28;20155;-83
2022/12/07 07:24:07;;;;;;;18.77;14.50;;;5.90;99.90;;;;;;4993675;28;20159;-83
2022/12/07 07:26:38;;;;;;;17.77;14.13;;;5.80;99.90;;;;;;4984485;28;20214;-82
2022/12/07 07:29:06;;;;;;;19.87;14.93;;;5.70;99.90;;;;;;5001832;28;20174;-85
2022/12/07 07:31:35;;;;;;;25.07;16.77;;;5.60;99.90;;;;;;5009187;28;20178;-82
2022/12/07 07:34:01;;;;;;;15.90;13.87;;;5.50;99.90;;;;;;5000691;28;20184;-83
2022/12/07 07:36:26;;;;;;;19.00;14.13;;;5.50;99.90;;;;;;4998646;28;20174;-82
2022/12/07 07:38:52;;;;;;;15.87;14.07;;;5.60;99.90;;;;;;4976675;28;20202;-82
2022/12/07 07:41:19;;;;;;;17.27;13.83;;;5.60;99.90;;;;;;4994236;28;20207;-81
2022/12/07 07:43:44;;;;;;;16.50;13.47;;;5.70;99.90;;;;;;5000652;28;20214;-80
2022/12/07 07:46:10;;;;;;;20.07;14.97;;;5.80;99.90;;;;;;5014295;28;20167;-79
2022/12/07 07:48:36;;;;;;;19.93;14.03;;;5.90;99.90;;;;;;5000131;28;20214;-85
2022/12/07 07:51:06;;;;;;;20.73;14.10;;;6.10;99.90;;;;;;4981480;28;20179;-81
2022/12/07 07:53:32;;;;;;;18.97;13.10;;;5.90;99.90;;;;;;5000113;28;20241;-81
2022/12/07 07:55:59;;;;;;;18.13;12.00;;;5.60;99.90;;;;;;5016393;28;20167;-82
2022/12/07 07:58:27;;;;;;;17.37;13.50;;;5.60;99.90;;;;;;5008957;28;20688;-81
2022/12/07 08:00:54;;;;;;;20.97;13.80;;;5.60;99.90;;;;;;4967669;28;20196;-82
2022/12/07 08:03:19;;;;;;;18.57;13.40;;;5.70;99.90;;;;;;5015252;28;20174;-80
2022/12/07 08:05:45;;;;;;;18.73;12.80;;;5.70;99.90;;;;;;5015026;28;20259;-82
2022/12/07 08:08:11;;;;;;;18.90;13.03;;;5.70;99.90;;;;;;5017451;28;20186;-82
2022/12/07 08:10:37;;;;;;;16.17;12.73;;;5.70;99.90;;;;;;5009631;28;20226;-80
2022/12/07 08:13:15;;;;;;;16.73;12.90;;;5.80;99.90;;;;;;4977125;28;20844;-79
2022/12/07 08:15:44;;;;;;;15.97;12.90;;;5.80;99.90;;;;;;4987031;28;20226;-80
2022/12/07 08:18:10;;;;;;;18.13;13.37;;;5.80;99.90;;;;;;5013407;28;20543;-81
2022/12/07 08:20:38;;;;;;;16.73;13.50;;;5.80;99.90;;;;;;5014035;28;20648;-79
2022/12/07 08:23:05;;;;;;;18.83;14.07;;;5.90;99.90;;;;;;4999034;28;20183;-80
2022/12/07 08:25:32;;;;;;;17.37;14.67;;;5.80;99.90;;;;;;4995219;28;20163;-81
2022/12/07 08:27:58;;;;;;;19.87;13.90;;;5.80;99.90;;;;;;4994018;28;20170;-81
2022/12/07 08:30:23;;;;;;;18.37;14.20;;;5.80;99.90;;;;;;5007070;28;20174;-82
2022/12/07 08:32:49;;;;;;;16.13;12.87;;;5.90;99.90;;;;;;5006752;28;20400;-80
2022/12/07 08:35:16;;;;;;;15.10;13.50;;;5.80;99.90;;;;;;4996345;28;20183;-80
2022/12/07 08:37:42;;;;;;;16.17;13.13;;;5.70;99.90;;;;;;4996954;28;20175;-80
2022/12/07 08:40:10;;;;;;;18.40;13.37;;;5.70;99.90;;;;;;4980167;28;20628;-81
2022/12/07 08:42:40;;;;;;;17.67;12.27;;;5.70;99.90;;;;;;4996494;28;20194;-84
2022/12/07 08:45:08;;;;;;;21.27;12.87;;;5.80;99.90;;;;;;4992963;28;20183;-78
2022/12/07 08:47:41;;;;;;;17.03;12.50;;;6.00;99.90;;;;;;4985571;28;20184;-82
2022/12/07 08:50:09;;;;;;;18.57;13.13;;;6.00;99.90;;;;;;4977238;28;20176;-84
2022/12/07 08:52:35;;;;;;;17.07;12.80;;;6.10;99.90;;;;;;5001353;28;20702;-80
2022/12/07 08:55:03;;;;;;;17.43;13.20;;;6.20;99.90;;;;;;5006391;28;20726;-84
2022/12/07 08:57:29;;;;;;;14.23;11.57;;;6.20;99.90;;;;;;5012260;28;20631;-85
2022/12/07 08:59:55;;;;;;;19.20;11.90;;;6.40;99.90;;;;;;5000350;28;20228;-82
2022/12/07 09:02:21;;;;;;;15.50;11.40;;;6.30;99.90;;;;;;5002025;28;20174;-81
2022/12/07 09:04:47;;;;;;;16.17;12.27;;;6.50;99.90;;;;;;4996854;28;20182;-84
2022/12/07 09:07:12;;;;;;;18.07;11.23;;;6.50;99.90;;;;;;5013208;28;20285;-84
2022/12/07 09:09:38;;;;;;;17.37;11.23;;;6.60;99.90;;;;;;5004933;28;20191;-84
2022/12/07 09:12:04;;;;;;;18.50;11.57;;;6.70;99.90;;;;;;5014512;28;20226;-84
2022/12/07 09:14:30;;;;;;;14.70;11.27;;;6.60;99.90;;;;;;5012462;28;20195;-83
2022/12/07 09:17:04;;;;;;;15.47;11.37;;;6.70;99.90;;;;;;5016380;28;20186;-84
2022/12/07 09:19:29;;;;;;;14.23;11.20;;;6.80;99.90;;;;;;5016713;28;20162;-83
2022/12/07 09:21:55;;;;;;;15.67;10.90;;;6.80;99.90;;;;;;5014359;28;20718;-83
2022/12/07 09:24:22;;;;;;;18.43;11.20;;;6.80;99.90;;;;;;4982799;28;20181;-85
2022/12/07 09:26:48;;;;;;;13.53;10.50;;;6.90;99.90;;;;;;4982477;28;20194;-84
2022/12/07 09:29:13;;;;;;;11.77;9.33;;;6.90;99.90;;;;;;4990625;28;20218;-80
2022/12/07 09:31:39;;;;;;;13.57;9.87;;;7.10;99.90;;;;;;5015265;28;20210;-81
2022/12/07 09:34:05;;;;;;;13.47;9.70;;;7.40;99.90;;;;;;4986642;28;20327;-83
2022/12/07 09:36:31;;;;;;;13.93;10.40;;;7.40;99.90;;;;;;4993332;28;20255;-82
2022/12/07 09:39:00;;;;;;;14.47;10.07;;;7.30;99.90;;;;;;4995159;28;20195;-82
2022/12/07 09:41:27;;;;;;;13.00;9.40;;;7.20;99.80;;;;;;4985237;28;20187;-84
2022/12/07 09:44:05;;;;;;;12.30;9.43;;;7.30;99.70;;;;;;4980457;28;20210;-82
2022/12/07 09:46:36;;;;;;;13.83;10.40;;;7.20;99.60;;;;;;4983142;28;20238;-82
2022/12/07 09:49:02;;;;;;;12.37;10.60;;;7.30;98.00;;;;;;4989311;28;20312;-82
2022/12/07 09:51:28;;;;;;;11.37;9.30;;;7.10;98.00;;;;;;4992753;28;20281;-80
2022/12/07 09:53:56;;;;;;;12.43;8.90;;;7.10;98.70;;;;;;5015249;28;20221;-81
2022/12/07 09:56:23;;;;;;;20.23;10.80;;;7.30;98.90;;;;;;5011202;28;20213;-84
2022/12/07 09:58:50;;;;;;;13.10;10.00;;;7.40;99.90;;;;;;4977750;28;20199;-83
2022/12/07 10:01:21;;;;;;;13.37;9.80;;;7.70;99.90;;;;;;5010964;28;20184;-82
2022/12/07 10:03:54;;;;;;;13.53;10.20;;;8.10;99.90;;;;;;5007178;28;20217;-80
2022/12/07 10:06:20;;;;;;;17.73;9.63;;;8.20;96.70;;;;;;5011979;28;20174;-81
2022/12/07 10:08:46;;;;;;;9.47;8.53;;;8.10;93.60;;;;;;5016864;28;20191;-81
2022/12/07 10:11:14;;;;;;;11.87;9.30;;;7.90;90.60;;;;;;5029264;28;20170;-81
2022/12/07 10:13:48;;;;;;;12.03;9.03;;;7.90;87.30;;;;;;5009907;28;20215;-82
2022/12/07 10:16:38;;;;;;;13.03;10.07;;;7.70;84.20;;;;;;5005341;28;20198;-81
2022/12/07 10:19:22;;;;;;;13.37;8.53;;;7.60;86.30;;;;;;4994750;28;20262;-80
2022/12/07 10:22:02;;;;;;;10.80;7.33;;;7.50;88.40;;;;;;4987666;28;20206;-82
2022/12/07 10:24:28;;;;;;;11.93;8.57;;;7.50;87.10;;;;;;5002888;28;20261;-80
2022/12/07 10:26:54;;;;;;;11.33;8.23;;;7.70;87.00;;;;;;5017657;28;20155;-79
2022/12/07 10:29:32;;;;;;;12.17;8.63;;;7.50;89.30;;;;;;5007943;28;20178;-79
2022/12/07 10:32:03;;;;;;;12.20;8.17;;;7.40;91.00;;;;;;5014640;28;20233;-79
2022/12/07 10:34:37;;;;;;;12.63;8.37;;;7.50;93.20;;;;;;5007051;28;20170;-80
2022/12/07 10:37:09;;;;;;;11.43;7.33;;;7.40;93.70;;;;;;4997609;28;20228;-80
2022/12/07 10:39:51;;;;;;;10.97;7.77;;;7.50;93.70;;;;;;4980501;28;20217;-80
2022/12/07 10:42:20;;;;;;;11.93;8.60;;;7.50;93.90;;;;;;4985349;28;20187;-81
2022/12/07 10:44:48;;;;;;;12.10;8.50;;;7.70;93.90;;;;;;4999466;28;20182;-81
2022/12/07 10:47:41;;;;;;;12.53;8.90;;;7.60;93.80;;;;;;5002557;28;20171;-80
2022/12/07 10:50:19;;;;;;;13.03;8.67;;;7.50;94.80;;;;;;4980534;28;20664;-80
2022/12/07 10:53:05;;;;;;;10.60;8.03;;;7.60;95.40;;;;;;4994086;28;20206;-80
2022/12/07 10:56:03;;;;;;;9.17;7.53;;;7.70;95.00;;;;;;4994786;28;20187;-78
2022/12/07 10:58:58;;;;;;;13.37;8.33;;;7.70;94.70;;;;;;5001611;28;20167;-80
2022/12/07 11:01:40;;;;;;;9.20;7.10;;;7.70;95.10;;;;;;4997630;28;20202;-80
2022/12/07 11:04:12;;;;;;;10.87;6.60;;;7.70;95.20;;;;;;4996027;28;20175;-80
2022/12/07 11:07:06;;;;;;;9.60;6.10;;;7.80;95.60;;;;;;4979311;28;20650;-80
2022/12/07 11:09:51;;;;;;;11.93;5.50;;;7.90;93.40;;;;;;4996019;28;20175;-79
2022/12/07 11:12:35;;;;;;;10.80;6.07;;;7.80;93.10;;;;;;4996334;28;20289;-82
2022/12/07 11:15:04;;;;;;;9.00;6.13;;;7.90;92.80;;;;;;4996237;28;20218;-80
2022/12/07 11:17:42;;;;;;;8.23;5.67;;;8.00;90.10;;;;;;4996562;28;20175;-79
2022/12/07 11:20:24;;;;;;;10.30;5.43;;;8.10;85.10;;;;;;4986227;28;20246;-80
2022/12/07 11:23:11;;;;;;;7.60;5.17;;;8.20;81.90;;;;;;5005342;28;20166;-78
2022/12/07 11:26:04;;;;;;;10.37;4.80;;;8.00;78.10;;;;;;4983021;28;20171;-78
2022/12/07 11:28:44;;;;;;;14.00;6.90;;;8.00;76.10;;;;;;4997154;28;20202;-79
2022/12/07 11:31:37;;;;;;;8.07;4.60;;;7.80;78.70;;;;;;4994806;28;20170;-80
2022/12/07 11:34:31;;;;;;;12.83;6.30;;;7.50;82.30;;;;;;4996518;28;20655;-79
2022/12/07 11:36:57;;;;;;;16.80;8.33;;;7.50;87.50;;;;;;5000073;28;20179;-80
2022/12/07 11:39:30;;;;;;;17.33;9.93;;;7.60;89.70;;;;;;4997122;28;20199;-81
2022/12/07 11:42:09;;;;;;;14.03;7.13;;;7.60;89.80;;;;;;4985933;28;20170;-81
2022/12/07 11:44:52;;;;;;;20.50;10.93;;;7.60;88.30;;;;;;4996777;28;20190;-80
2022/12/07 11:47:26;;;;;;;12.67;7.13;;;7.70;90.20;;;;;;4978802;28;20178;-79
2022/12/07 11:50:10;;;;;;;22.67;9.17;;;7.80;88.50;;;;;;4997037;28;20305;-81
2022/12/07 11:53:09;;;;;;;10.60;5.37;;;7.90;86.30;;;;;;4995321;28;20218;-79
2022/12/07 11:56:00;;;;;;;9.07;4.80;;;8.10;87.00;;;;;;4979392;28;20207;-81
2022/12/07 11:58:47;;;;;;;7.37;4.40;;;8.10;79.00;;;;;;4980972;28;20171;-80
2022/12/07 12:01:28;;;;;;;9.17;5.30;;;8.00;74.20;;;;;;4984059;28;21530;-79
2022/12/07 12:04:02;;;;;;;9.30;5.17;;;8.10;76.20;;;;;;4988892;28;20190;-78
2022/12/07 12:06:28;;;;;;;7.67;4.80;;;8.20;77.20;;;;;;4993851;28;20175;-79
2022/12/07 12:09:05;;;;;;;13.00;5.73;;;8.00;69.30;;;;;;4990141;28;20175;-78
2022/12/07 12:11:42;;;;;;;16.57;8.80;;;8.00;72.50;;;;;;4990372;28;20171;-78
2022/12/07 12:14:43;;;;;;;8.27;4.30;;;7.90;71.70;;;;;;4992000;28;20175;-81
2022/12/07 12:17:42;;;;;;;9.90;4.63;;;8.00;71.50;;;;;;4997608;28;20179;-80
2022/12/07 12:20:17;;;;;;;11.17;7.40;;;7.90;68.10;;;;;;4971517;28;20651;-80
2022/12/07 12:22:46;;;;;;;8.17;3.47;;;7.80;70.00;;;;;;4993463;28;20206;-80
2022/12/07 12:25:38;;;;;;;16.00;9.43;;;7.70;68.40;;;;;;4993983;28;20182;-78
2022/12/07 12:28:04;;;;;;;8.53;2.93;;;7.80;69.10;;;;;;4990745;28;20171;-80
2022/12/07 12:30:33;;;;;;;6.87;2.60;;;7.60;68.70;;;;;;4979423;28;20632;-80
2022/12/07 12:33:24;;;;;;;9.10;3.57;;;7.60;69.90;;;;;;4985253;28;20289;-79
2022/12/07 12:36:35;;;;;;;5.40;3.13;;;7.80;71.70;;;;;;4982341;28;20282;-79
2022/12/07 12:39:07;;;;;;;10.33;6.37;;;7.90;67.90;;;;;;4983581;28;20209;-78
2022/12/07 12:41:39;;;;;;;7.90;3.87;;;8.10;64.20;;;;;;4998834;28;20173;-78
2022/12/07 12:44:33;;;;;;;5.07;2.33;;;8.00;62.30;;;;;;5012306;28;20167;-76
2022/12/07 12:47:04;;;;;;;6.90;3.93;;;8.00;63.90;;;;;;4974654;28;20523;-81
2022/12/07 12:49:36;;;;;;;11.40;5.33;;;8.00;64.60;;;;;;4999272;28;20162;-81
2022/12/07 12:52:29;;;;;;;24.20;11.83;;;7.90;67.50;;;;;;5000184;28;20531;-79
2022/12/07 12:55:11;;;;;;;45.93;18.93;;;7.90;71.30;;;;;;4973554;28;20191;-80
2022/12/07 12:57:37;;;;;;;8.83;4.43;;;7.90;73.00;;;;;;4966275;28;20175;-83
2022/12/07 13:00:28;;;;;;;9.67;3.20;;;8.00;73.00;;;;;;5000770;28;20611;-79
2022/12/07 13:02:56;;;;;;;6.20;3.57;;;7.90;72.10;;;;;;5000913;28;20203;-81
2022/12/07 13:05:27;;;;;;;9.13;3.00;;;8.00;70.20;;;;;;4989225;28;20178;-80